createdAt,value
2023-04-16T00:02:41.939Z,10.49
2023-04-16T00:05:43.485Z,10.21
2023-04-16T00:08:44.921Z,10.33
2023-04-16T00:11:46.382Z,10.43
2023-04-16T00:14:49.102Z,10.28
2023-04-16T00:17:50.680Z,10.46
2023-04-16T00:20:52.134Z,10.44
2023-04-16T00:23:53.613Z,10.39
2023-04-16T00:26:55.916Z,10.39
2023-04-16T00:29:57.232Z,10.26
2023-04-16T00:32:58.789Z,10.24
2023-04-16T00:36:00.369Z,10.48
2023-04-16T00:39:02.031Z,10.52
2023-04-16T00:42:03.593Z,10.48
2023-04-16T00:45:05.872Z,10.56
2023-04-16T00:48:07.235Z,10.40
2023-04-16T00:51:09.067Z,10.27
2023-04-16T00:54:10.740Z,10.33
2023-04-16T00:57:14.438Z,10.33
2023-04-16T01:00:16.295Z,10.35
2023-04-16T01:03:17.876Z,10.52
2023-04-16T01:06:19.450Z,10.49
2023-04-16T01:09:20.913Z,10.52
2023-04-16T01:12:22.503Z,10.46
2023-04-16T01:15:23.977Z,10.35
2023-04-16T01:18:26.233Z,10.35
2023-04-16T01:21:27.565Z,10.33
2023-04-16T01:24:29.115Z,10.40
2023-04-16T01:27:31.173Z,10.42
2023-04-16T01:30:32.837Z,10.08
2023-04-16T01:33:44.564Z,10.06
2023-04-16T01:36:46.835Z,10.15
2023-04-16T01:39:48.262Z,10.17
2023-04-16T01:42:49.717Z,9.87
2023-04-16T01:45:53.773Z,9.96
2023-04-16T01:48:55.444Z,10.16
2023-04-16T01:51:56.919Z,9.83
2023-04-16T01:54:58.401Z,9.93
2023-04-16T01:57:59.820Z,9.77
2023-04-16T02:01:05.835Z,9.57
2023-04-16T02:04:08.208Z,9.76
2023-04-16T02:07:10.309Z,9.89
2023-04-16T02:10:11.752Z,9.77
2023-04-16T02:13:15.570Z,9.69
2023-04-16T02:16:18.538Z,9.66
2023-04-16T02:19:28.807Z,9.63
2023-04-16T02:22:30.514Z,9.70
2023-04-16T02:25:32.840Z,9.77
2023-04-16T02:28:34.378Z,10.03
2023-04-16T02:31:36.193Z,10.05
2023-04-16T02:34:40.105Z,9.86
2023-04-16T02:37:41.726Z,10.17
2023-04-16T02:40:43.810Z,10.03
2023-04-16T02:43:45.845Z,10.08
2023-04-16T02:46:47.275Z,9.98
2023-04-16T02:49:48.786Z,10.02
2023-04-16T02:52:51.472Z,9.95
2023-04-16T02:55:54.531Z,9.47
2023-04-16T02:58:56.306Z,9.75
2023-04-16T03:01:58.167Z,9.87
2023-04-16T03:04:59.824Z,9.82
2023-04-16T03:08:01.253Z,9.89
2023-04-16T03:11:02.718Z,10.07
2023-04-16T03:14:04.106Z,9.88
2023-04-16T03:17:05.697Z,9.78
2023-04-16T03:20:07.945Z,9.72
2023-04-16T03:23:09.474Z,9.70
2023-04-16T03:26:10.935Z,9.81
2023-04-16T03:29:12.478Z,9.84
2023-04-16T03:32:13.919Z,9.88
2023-04-16T03:35:15.850Z,9.88
2023-04-16T03:38:17.583Z,9.67
2023-04-16T03:41:19.518Z,9.69
2023-04-16T03:44:21.317Z,9.68
2023-04-16T03:47:22.819Z,9.69
2023-04-16T03:50:27.923Z,9.86
2023-04-16T03:53:29.827Z,9.85
2023-04-16T03:56:31.291Z,9.84
2023-04-16T03:59:32.742Z,9.83
2023-04-16T04:02:35.058Z,9.85
2023-04-16T04:05:41.081Z,9.86
2023-04-16T04:08:44.712Z,9.85
2023-04-16T04:11:48.265Z,9.75
2023-04-16T04:14:49.931Z,9.97
2023-04-16T04:17:51.442Z,9.97
2023-04-16T04:20:53.038Z,9.70
2023-04-16T04:23:58.351Z,9.75
2023-04-16T04:26:59.766Z,9.73
2023-04-16T04:30:04.241Z,9.71
2023-04-16T04:33:06.846Z,9.91
2023-04-16T04:36:08.347Z,9.90
2023-04-16T04:39:11.623Z,9.58
2023-04-16T04:42:18.952Z,9.52
2023-04-16T04:45:20.700Z,9.31
2023-04-16T04:48:26.445Z,9.39
2023-04-16T04:51:28.411Z,9.68
2023-04-16T04:54:30.945Z,9.77
2023-04-16T04:57:32.377Z,9.82
2023-04-16T05:00:34.856Z,9.83
2023-04-16T05:03:36.473Z,9.87
2023-04-16T05:06:37.947Z,9.71
2023-04-16T05:09:39.362Z,9.81
2023-04-16T05:12:40.908Z,9.98
2023-04-16T05:15:42.467Z,9.93
2023-04-16T05:18:43.882Z,9.87
2023-04-16T05:21:45.308Z,9.81
2023-04-16T05:24:46.724Z,9.92
2023-04-16T05:27:48.175Z,9.88
2023-04-16T05:30:49.627Z,9.97
2023-04-16T05:33:51.058Z,9.91
2023-04-16T05:36:52.432Z,9.73
2023-04-16T05:39:54.107Z,9.87
2023-04-16T05:42:55.582Z,9.75
2023-04-16T05:45:57.025Z,9.73
2023-04-16T05:48:58.481Z,9.96
2023-04-16T05:51:59.928Z,9.72
2023-04-16T05:55:01.806Z,9.83
2023-04-16T05:58:06.219Z,9.90
2023-04-16T06:01:07.654Z,9.93
2023-04-16T06:04:09.156Z,9.97
2023-04-16T06:07:10.746Z,9.87
2023-04-16T06:10:12.188Z,9.06
2023-04-16T06:13:13.725Z,8.96
2023-04-16T06:16:15.341Z,8.58
2023-04-16T06:19:16.862Z,8.76
2023-04-16T06:22:18.403Z,8.73
2023-04-16T06:25:19.823Z,9.16
2023-04-16T06:28:21.465Z,9.24
2023-04-16T06:31:22.999Z,9.31
2023-04-16T06:34:24.468Z,8.89
2023-04-16T06:37:25.879Z,9.02
2023-04-16T06:40:27.355Z,8.96
2023-04-16T06:43:29.817Z,9.07
2023-04-16T06:46:31.845Z,9.09
2023-04-16T06:49:33.306Z,8.96
2023-04-16T06:52:34.750Z,9.13
2023-04-16T06:55:36.242Z,9.02
2023-04-16T06:58:37.734Z,9.34
2023-04-16T07:01:39.229Z,9.57
2023-04-16T07:04:40.658Z,9.57
2023-04-16T07:07:42.056Z,9.48
2023-04-16T07:10:43.654Z,9.45
2023-04-16T07:13:45.163Z,9.40
2023-04-16T07:16:46.648Z,9.13
2023-04-16T07:19:48.140Z,9.21
2023-04-16T07:22:49.686Z,9.04
2023-04-16T07:25:51.203Z,9.01
2023-04-16T07:28:52.672Z,9.22
2023-04-16T07:31:54.160Z,9.32
2023-04-16T07:34:56.149Z,9.25
2023-04-16T07:37:57.610Z,9.38
2023-04-16T07:40:59.113Z,9.19
2023-04-16T07:44:00.605Z,9.21
2023-04-16T07:47:03.549Z,9.27
2023-04-16T07:50:08.038Z,9.22
2023-04-16T07:53:09.663Z,9.36
2023-04-16T07:56:11.364Z,9.39
2023-04-16T07:59:21.719Z,9.40
2023-04-16T08:02:24.818Z,9.11
2023-04-16T08:05:26.714Z,9.00
2023-04-16T08:08:29.027Z,9.22
2023-04-16T08:11:30.686Z,9.07
2023-04-16T08:14:32.111Z,9.27
2023-04-16T08:17:34.425Z,9.36
2023-04-16T08:20:35.883Z,9.47
2023-04-16T08:23:37.314Z,9.65
2023-04-16T08:26:38.798Z,9.67
2023-04-16T08:29:40.248Z,9.64
2023-04-16T08:32:42.353Z,9.60
2023-04-16T08:35:43.814Z,9.65
2023-04-16T08:38:45.398Z,9.73
2023-04-16T08:41:47.615Z,9.78
2023-04-16T08:44:50.292Z,9.84
2023-04-16T08:47:52.993Z,9.75
2023-04-16T08:50:55.029Z,9.78
2023-04-16T08:54:04.209Z,9.78
2023-04-16T08:57:06.508Z,9.78
2023-04-16T09:00:08.863Z,9.74
2023-04-16T09:03:11.170Z,9.75
2023-04-16T09:06:13.531Z,9.82
2023-04-16T09:09:16.074Z,9.72
2023-04-16T09:12:17.555Z,9.61
2023-04-16T09:15:20.547Z,9.77
2023-04-16T09:18:22.016Z,9.82
2023-04-16T09:21:24.095Z,9.84
2023-04-16T09:24:25.946Z,9.82
2023-04-16T09:27:28.160Z,9.82
2023-04-16T09:30:29.760Z,9.86
2023-04-16T09:33:32.378Z,9.97
2023-04-16T09:36:36.468Z,10.09
2023-04-16T09:39:37.999Z,10.21
2023-04-16T09:42:39.392Z,10.13
2023-04-16T09:45:54.281Z,10.18
2023-04-16T09:48:55.807Z,10.32
2023-04-16T09:51:59.613Z,10.36
2023-04-16T09:55:01.015Z,10.37
2023-04-16T09:58:02.474Z,10.44
2023-04-16T10:01:07.940Z,10.27
2023-04-16T10:04:09.463Z,10.36
2023-04-16T10:07:11.057Z,10.36
2023-04-16T10:10:12.791Z,10.40
2023-04-16T10:13:17.535Z,10.47
2023-04-16T10:16:19.094Z,10.62
2023-04-16T10:19:20.781Z,10.73
2023-04-16T10:22:22.289Z,10.60
2023-04-16T10:25:24.342Z,10.66
2023-04-16T10:28:25.972Z,10.75
2023-04-16T10:31:28.390Z,10.93
2023-04-16T10:34:31.244Z,11.03
2023-04-16T10:37:33.088Z,11.14
2023-04-16T10:40:35.129Z,10.98
2023-04-16T10:43:41.129Z,10.86
2023-04-16T10:46:44.550Z,10.79
2023-04-16T10:49:48.070Z,10.73
2023-04-16T10:52:49.478Z,10.73
2023-04-16T10:55:58.542Z,10.94
2023-04-16T10:59:00.292Z,10.70
2023-04-16T11:02:07.456Z,10.78
2023-04-16T11:05:09.604Z,10.75
2023-04-16T11:08:14.547Z,10.94
2023-04-16T11:11:16.368Z,10.79
2023-04-16T11:14:18.132Z,10.19
2023-04-16T11:17:21.178Z,10.22
2023-04-16T11:20:24.866Z,10.30
2023-04-16T11:23:26.359Z,10.00
2023-04-16T11:26:29.468Z,10.38
2023-04-16T11:29:31.001Z,10.77
2023-04-16T11:32:33.886Z,10.78
2023-04-16T11:35:35.680Z,10.72
2023-04-16T11:38:38.284Z,10.83
2023-04-16T11:41:47.493Z,11.09
2023-04-16T11:44:56.503Z,11.20
2023-04-16T11:47:58.039Z,11.21
2023-04-16T11:50:59.621Z,11.40
2023-04-16T11:54:02.030Z,11.26
2023-04-16T11:57:04.556Z,11.10
2023-04-16T12:00:10.673Z,11.10
2023-04-16T12:03:15.458Z,11.10
2023-04-16T12:06:17.006Z,11.17
2023-04-16T12:09:26.200Z,11.10
2023-04-16T12:12:32.258Z,11.13
2023-04-16T12:15:53.343Z,10.93
2023-04-16T12:19:03.805Z,11.11
2023-04-16T12:22:05.331Z,11.20
2023-04-16T12:25:15.424Z,11.05
2023-04-16T12:28:28.619Z,10.78
2023-04-16T12:31:38.949Z,10.58
2023-04-16T12:34:51.538Z,10.99
2023-04-16T12:37:52.966Z,11.06
2023-04-16T12:40:57.104Z,11.02
2023-04-16T12:44:05.018Z,11.02
2023-04-16T12:47:06.607Z,11.01
2023-04-16T12:50:08.268Z,10.92
2023-04-16T12:53:09.712Z,10.91
2023-04-16T12:56:11.187Z,11.04
2023-04-16T12:59:12.736Z,11.12
2023-04-16T13:02:14.344Z,10.99
2023-04-16T13:05:17.157Z,10.92
2023-04-16T13:08:18.596Z,11.03
2023-04-16T13:11:20.497Z,10.99
2023-04-16T13:14:22.052Z,10.90
2023-04-16T13:17:23.619Z,10.50
2023-04-16T13:20:25.261Z,10.42
2023-04-16T13:23:27.008Z,10.59
2023-04-16T13:26:28.465Z,10.42
2023-04-16T13:29:30.081Z,10.44
2023-04-16T13:32:31.827Z,10.20
2023-04-16T13:35:33.264Z,10.40
2023-04-16T13:38:34.662Z,10.36
2023-04-16T13:41:37.044Z,10.29
2023-04-16T13:44:38.549Z,10.61
2023-04-16T13:47:43.653Z,10.87
2023-04-16T13:50:45.448Z,10.88
2023-04-16T13:53:46.953Z,10.84
2023-04-16T13:56:50.165Z,10.75
2023-04-16T13:59:51.722Z,10.88
2023-04-16T14:02:53.858Z,10.78
2023-04-16T14:05:55.364Z,10.72
2023-04-16T14:08:56.794Z,10.79
2023-04-16T14:11:58.218Z,10.42
2023-04-16T14:14:59.767Z,10.42
2023-04-16T14:18:01.784Z,10.77
2023-04-16T14:21:03.541Z,10.65
2023-04-16T14:24:05.452Z,10.94
2023-04-16T14:27:06.917Z,11.06
2023-04-16T14:30:08.919Z,11.07
2023-04-16T14:33:10.563Z,10.96
2023-04-16T14:36:12.052Z,10.73
2023-04-16T14:39:13.753Z,10.89
2023-04-16T14:42:15.391Z,11.17
2023-04-16T14:45:16.832Z,11.02
2023-04-16T14:48:18.298Z,11.16
2023-04-16T14:51:19.799Z,11.03
2023-04-16T14:54:21.397Z,11.01
2023-04-16T14:57:23.027Z,11.08
2023-04-16T15:00:24.508Z,10.91
2023-04-16T15:03:26.676Z,10.85
2023-04-16T15:06:28.464Z,10.90
2023-04-16T15:09:29.929Z,10.89
2023-04-16T15:12:31.367Z,10.94
2023-04-16T15:15:32.765Z,11.02
2023-04-16T15:18:34.308Z,10.96
2023-04-16T15:21:35.734Z,10.71
2023-04-16T15:24:37.185Z,10.92
2023-04-16T15:27:38.698Z,10.94
2023-04-16T15:30:41.312Z,11.05
2023-04-16T15:33:42.888Z,10.94
2023-04-16T15:36:44.400Z,11.04
2023-04-16T15:39:46.234Z,10.87
2023-04-16T15:42:48.068Z,11.04
2023-04-16T15:45:49.552Z,11.09
2023-04-16T15:48:51.031Z,11.00
2023-04-16T15:51:53.054Z,10.98
2023-04-16T15:54:54.887Z,11.09
2023-04-16T15:57:56.365Z,11.09
2023-04-16T16:00:57.828Z,11.02
2023-04-16T16:03:59.481Z,10.89
2023-04-16T16:07:02.747Z,10.60
2023-04-16T16:10:05.937Z,10.37
2023-04-16T16:13:12.033Z,10.32
2023-04-16T16:16:14.675Z,10.37
2023-04-16T16:19:18.603Z,10.46
2023-04-16T16:22:20.630Z,10.53
2023-04-16T16:25:22.198Z,10.39
2023-04-16T16:28:24.968Z,10.37
2023-04-16T16:31:26.540Z,10.39
2023-04-16T16:34:28.237Z,10.38
2023-04-16T16:37:29.651Z,10.39
2023-04-16T16:40:31.136Z,10.37
2023-04-16T16:43:32.875Z,10.44
2023-04-16T16:46:34.654Z,10.48
2023-04-16T16:49:36.112Z,10.49
2023-04-16T16:52:38.291Z,10.52
2023-04-16T16:55:39.711Z,10.54
2023-04-16T16:58:41.696Z,10.35
2023-04-16T17:01:43.152Z,10.34
2023-04-16T17:04:44.842Z,10.29
2023-04-16T17:07:46.658Z,10.21
2023-04-16T17:10:48.230Z,10.33
2023-04-16T17:13:49.727Z,10.24
2023-04-16T17:16:51.272Z,10.34
2023-04-16T17:19:52.836Z,10.33
2023-04-16T17:22:54.251Z,10.21
2023-04-16T17:25:55.826Z,10.17
2023-04-16T17:28:59.170Z,10.31
2023-04-16T17:32:00.894Z,10.38
2023-04-16T17:35:04.176Z,10.10
2023-04-16T17:38:05.909Z,10.12
2023-04-16T17:41:07.355Z,10.21
2023-04-16T17:44:11.129Z,10.36
2023-04-16T17:47:13.250Z,10.23
2023-04-16T17:50:14.906Z,10.28
2023-04-16T17:53:16.613Z,10.24
2023-04-16T17:56:18.020Z,10.22
2023-04-16T17:59:19.555Z,10.33
2023-04-16T18:02:21.150Z,10.34
2023-04-16T18:05:22.741Z,10.31
2023-04-16T18:08:25.113Z,10.24
2023-04-16T18:11:27.491Z,10.15
2023-04-16T18:14:30.039Z,10.26
2023-04-16T18:17:31.528Z,10.26
2023-04-16T18:20:33.425Z,10.21
2023-04-16T18:23:34.828Z,10.17
2023-04-16T18:26:36.484Z,9.86
2023-04-16T18:29:39.864Z,9.88
2023-04-16T18:32:58.920Z,10.06
2023-04-16T18:36:03.741Z,10.14
2023-04-16T18:39:05.862Z,10.13
2023-04-16T18:42:07.800Z,10.10
2023-04-16T18:45:13.657Z,10.12
2023-04-16T18:48:16.129Z,10.10
2023-04-16T18:51:17.583Z,10.24
2023-04-16T18:54:20.307Z,10.27
2023-04-16T18:57:21.723Z,10.28
2023-04-16T19:00:23.263Z,10.24
2023-04-16T19:03:27.019Z,10.10
2023-04-16T19:06:29.144Z,10.07
2023-04-16T19:09:30.871Z,10.07
2023-04-16T19:12:32.529Z,10.21
2023-04-16T19:15:34.864Z,10.21
2023-04-16T19:18:37.546Z,10.16
2023-04-16T19:21:38.976Z,10.21
2023-04-16T19:24:40.637Z,10.32
2023-04-16T19:27:42.132Z,10.24
2023-04-16T19:30:46.434Z,10.08
2023-04-16T19:33:47.880Z,9.99
2023-04-16T19:36:49.295Z,9.78
2023-04-16T19:39:50.798Z,9.94
2023-04-16T19:42:52.322Z,9.71
2023-04-16T19:45:54.243Z,9.76
2023-04-16T19:48:56.595Z,9.67
2023-04-16T19:51:57.946Z,9.85
2023-04-16T19:54:59.440Z,9.90
2023-04-16T19:58:05.901Z,9.86
2023-04-16T20:01:11.355Z,9.89
2023-04-16T20:04:12.855Z,10.02
2023-04-16T20:07:14.278Z,10.16
2023-04-16T20:10:15.825Z,10.26
2023-04-16T20:13:18.594Z,10.20
2023-04-16T20:16:23.810Z,10.11
2023-04-16T20:19:29.936Z,10.03
2023-04-16T20:22:31.372Z,9.99
2023-04-16T20:25:32.800Z,9.84
2023-04-16T20:28:34.327Z,9.71
2023-04-16T20:31:35.745Z,9.88
2023-04-16T20:34:38.180Z,9.94
2023-04-16T20:37:41.793Z,10.00
2023-04-16T20:40:44.999Z,9.97
2023-04-16T20:43:49.969Z,9.88
2023-04-16T20:46:54.878Z,9.78
2023-04-16T20:49:56.501Z,9.75
2023-04-16T20:52:57.970Z,9.88
2023-04-16T20:56:02.965Z,10.05
2023-04-16T20:59:04.469Z,9.94
2023-04-16T21:02:06.172Z,9.81
2023-04-16T21:05:10.383Z,9.95
2023-04-16T21:08:11.808Z,10.04
2023-04-16T21:11:13.293Z,10.00
2023-04-16T21:14:14.727Z,10.11
2023-04-16T21:17:16.305Z,10.16
2023-04-16T21:20:17.778Z,10.16
2023-04-16T21:23:19.211Z,10.15
2023-04-16T21:26:20.865Z,10.06
2023-04-16T21:29:23.469Z,10.07
2023-04-16T21:32:24.956Z,10.09
2023-04-16T21:35:26.646Z,10.07
2023-04-16T21:38:28.172Z,10.17
2023-04-16T21:41:29.625Z,10.09
2023-04-16T21:44:31.187Z,9.93
2023-04-16T21:47:32.677Z,9.78
2023-04-16T21:50:34.108Z,9.59
2023-04-16T21:53:36.778Z,9.87
2023-04-16T21:56:38.773Z,10.06
2023-04-16T21:59:40.313Z,10.17
2023-04-16T22:02:42.723Z,10.17
2023-04-16T22:05:45.829Z,10.10
2023-04-16T22:08:49.632Z,10.08
2023-04-16T22:11:52.372Z,10.10
2023-04-16T22:15:02.403Z,10.06
2023-04-16T22:18:04.514Z,10.08
2023-04-16T22:21:06.020Z,10.07
2023-04-16T22:24:07.544Z,10.02
2023-04-16T22:27:08.988Z,10.09
2023-04-16T22:30:10.884Z,10.12
2023-04-16T22:33:12.461Z,10.14
2023-04-16T22:36:13.906Z,10.12
2023-04-16T22:39:15.510Z,10.12
2023-04-16T22:42:17.208Z,10.11
2023-04-16T22:45:18.741Z,10.17
2023-04-16T22:48:20.159Z,10.19
2023-04-16T22:51:24.265Z,10.14
2023-04-16T22:54:29.785Z,10.09
2023-04-16T22:57:31.227Z,10.06
2023-04-16T23:00:32.910Z,9.68
2023-04-16T23:03:34.499Z,9.72
2023-04-16T23:06:36.145Z,9.45
2023-04-16T23:09:37.535Z,9.35
2023-04-16T23:12:39.101Z,9.36
2023-04-16T23:15:40.716Z,9.67
2023-04-16T23:18:42.224Z,9.77
2023-04-16T23:21:43.627Z,9.87
2023-04-16T23:24:45.749Z,9.88
2023-04-16T23:27:47.193Z,9.98
2023-04-16T23:30:52.728Z,10.08
2023-04-16T23:33:54.307Z,10.09
2023-04-16T23:36:55.766Z,10.07
2023-04-16T23:39:57.199Z,9.95
2023-04-16T23:42:58.791Z,10.05
2023-04-16T23:46:00.353Z,10.10
2023-04-16T23:49:01.909Z,10.05
2023-04-16T23:52:03.561Z,10.06
2023-04-16T23:55:05.326Z,10.05
2023-04-16T23:58:06.747Z,9.99
